KBCT/BCT METAR and TAF weather

Enter ICAO airport designator
Station Type Date Time Source
KBCT METAR 2018/04/26 14:51 UTC NOAA

KBCT 261451Z 33007KT 10SM CLR 24/16 A2998


Station Type Date Time Source
KBCT Decoded METAR 2018/04/26 14:51 UTC NOAA

Boca Raton, Boca Raton Airport, FL, United States (KBCT) 26-22-43N 080-06-28W
Apr 26, 2018 - 10:51 AM EDT / 2018.04.26 1451 UTC
Wind: from the NNW (330 degrees) at 8 MPH (7 KT):0
Visibility: 10 mile(s):0
Sky conditions: clear
Temperature: 75 F (24 C)
Dew Point: 60 F (16 C)
Relative Humidity: 60%
Pressure (altimeter): 29.98 in. Hg (1015 hPa)
ob: KBCT 261451Z 33007KT 10SM CLR 24/16 A2998
cycle: 15

Station Type Date Time Source
KBCT TAF UTC NOAA

Error!


Example: see airport list